SWR232C LSGG-LFKJ
Flight info
| Callsign | SWR232C |
|---|---|
| Flight time | 1h 24m |
| Altitude | 31000 |
| Route | MEDAM DCT VEVAR/N0452F350 DCT BARSO DCT KOLON DCT OMARD M623 VAREK |
| Aircraft | A319/M-SDE3FGHIRWY/LB1 |
Departure
| Time | 2026-04-23 21:26 |
|---|---|
| Airport | Geneva International Airport (LSGG) |
Arrival
| Time | 2026-04-23 22:51 |
|---|---|
| Airport | Ajaccio Napoléon Bonaparte airport (LFKJ) |
| Time | Latitude | Longitude | Altitude | Speed | Heading |
|---|---|---|---|---|---|
| 2026-04-23 20:51 | 46.23101 | 6.10667 | 1393 ft | 0 kts | 135° |
| 2026-04-23 21:13 | 46.23102 | 6.10666 | 1393 ft | 2 kts | 135° |
| 2026-04-23 21:13 | 46.23121 | 6.10641 | 1401 ft | 4 kts | 147° |
| 2026-04-23 21:13 | 46.23142 | 6.10630 | 1403 ft | 4 kts | 202° |
| 2026-04-23 21:14 | 46.23159 | 6.10648 | 1400 ft | 2 kts | 225° |
| 2026-04-23 21:14 | 46.23160 | 6.10651 | 1400 ft | 0 kts | 225° |
| 2026-04-23 21:18 | 46.23158 | 6.10647 | 1400 ft | 2 kts | 225° |
| 2026-04-23 21:18 | 46.23138 | 6.10617 | 1398 ft | 6 kts | 225° |
| 2026-04-23 21:18 | 46.23098 | 6.10558 | 1395 ft | 10 kts | 225° |
| 2026-04-23 21:18 | 46.23084 | 6.10469 | 1398 ft | 10 kts | 304° |
| 2026-04-23 21:19 | 46.23136 | 6.10391 | 1393 ft | 11 kts | 316° |
| 2026-04-23 21:19 | 46.23161 | 6.10299 | 1393 ft | 11 kts | 241° |
| 2026-04-23 21:19 | 46.23113 | 6.10213 | 1397 ft | 11 kts | 226° |
| 2026-04-23 21:19 | 46.23055 | 6.10129 | 1394 ft | 12 kts | 225° |
| 2026-04-23 21:20 | 46.22993 | 6.10039 | 1399 ft | 13 kts | 225° |
| 2026-04-23 21:20 | 46.22931 | 6.09946 | 1399 ft | 13 kts | 226° |
| 2026-04-23 21:20 | 46.22864 | 6.09847 | 1398 ft | 14 kts | 225° |
| 2026-04-23 21:20 | 46.22792 | 6.09740 | 1395 ft | 15 kts | 226° |
| 2026-04-23 21:21 | 46.22714 | 6.09626 | 1395 ft | 17 kts | 225° |
| 2026-04-23 21:21 | 46.22630 | 6.09503 | 1401 ft | 18 kts | 225° |
| 2026-04-23 21:21 | 46.22566 | 6.09389 | 1400 ft | 10 kts | 242° |
| 2026-04-23 21:21 | 46.22553 | 6.09326 | 1411 ft | 2 kts | 261° |
| 2026-04-23 21:22 | 46.22553 | 6.09322 | 1417 ft | 0 kts | 263° |
| 2026-04-23 21:22 | 46.22551 | 6.09276 | 1421 ft | 7 kts | 268° |
| 2026-04-23 21:22 | 46.22551 | 6.09251 | 1423 ft | 0 kts | 271° |
| 2026-04-23 21:24 | 46.22552 | 6.09241 | 1424 ft | 4 kts | 273° |
| 2026-04-23 21:24 | 46.22588 | 6.09169 | 1429 ft | 13 kts | 338° |
| 2026-04-23 21:25 | 46.22679 | 6.09243 | 1434 ft | 19 kts | 46° |
| 2026-04-23 21:25 | 46.22782 | 6.09392 | 1431 ft | 23 kts | 45° |
| 2026-04-23 21:25 | 46.22823 | 6.09452 | 1436 ft | 0 kts | 45° |
| 2026-04-23 21:26 | 46.22856 | 6.09502 | 1430 ft | 34 kts | 46° |
| 2026-04-23 21:26 | 46.23258 | 6.10094 | 1415 ft | 129 kts | 45° |
| 2026-04-23 21:26 | 46.24003 | 6.11187 | 1875 ft | 156 kts | 45° |
| 2026-04-23 21:26 | 46.24769 | 6.12309 | 2883 ft | 159 kts | 45° |
| 2026-04-23 21:27 | 46.25577 | 6.13497 | 3532 ft | 176 kts | 45° |
| 2026-04-23 21:27 | 46.26488 | 6.14840 | 3965 ft | 199 kts | 45° |
| 2026-04-23 21:27 | 46.27519 | 6.16357 | 4449 ft | 224 kts | 45° |
| 2026-04-23 21:27 | 46.28673 | 6.18054 | 5061 ft | 249 kts | 45° |
| 2026-04-23 21:28 | 46.29925 | 6.19895 | 5897 ft | 261 kts | 45° |
| 2026-04-23 21:28 | 46.31205 | 6.21778 | 6943 ft | 265 kts | 46° |
| 2026-04-23 21:28 | 46.32511 | 6.23701 | 7916 ft | 270 kts | 46° |
| 2026-04-23 21:28 | 46.33819 | 6.25626 | 8924 ft | 274 kts | 47° |
| 2026-04-23 21:29 | 46.35154 | 6.27610 | 9960 ft | 277 kts | 49° |
| 2026-04-23 21:29 | 46.36081 | 6.30034 | 10858 ft | 279 kts | 77° |
| 2026-04-23 21:29 | 46.36110 | 6.32911 | 11382 ft | 301 kts | 102° |
| 2026-04-23 21:29 | 46.35164 | 6.35729 | 11729 ft | 328 kts | 128° |
| 2026-04-23 21:30 | 46.33275 | 6.37724 | 12280 ft | 349 kts | 156° |
| 2026-04-23 21:30 | 46.30850 | 6.38234 | 13060 ft | 362 kts | 183° |
| 2026-04-23 21:30 | 46.28400 | 6.37335 | 13925 ft | 369 kts | 198° |
| 2026-04-23 21:30 | 46.26021 | 6.35829 | 14730 ft | 374 kts | 205° |
| 2026-04-23 21:31 | 46.23720 | 6.34035 | 15513 ft | 378 kts | 207° |
| 2026-04-23 21:31 | 46.21406 | 6.32207 | 16262 ft | 380 kts | 202° |
| 2026-04-23 21:31 | 46.18921 | 6.30948 | 17042 ft | 378 kts | 190° |
| 2026-04-23 21:31 | 46.16312 | 6.30529 | 17848 ft | 378 kts | 180° |
| 2026-04-23 21:32 | 46.13683 | 6.30371 | 18635 ft | 380 kts | 179° |
| 2026-04-23 21:32 | 46.11032 | 6.30249 | 19299 ft | 382 kts | 179° |
| 2026-04-23 21:32 | 46.08396 | 6.30138 | 19938 ft | 386 kts | 179° |
| 2026-04-23 21:32 | 46.05696 | 6.30015 | 20568 ft | 390 kts | 179° |
| 2026-04-23 21:33 | 46.02938 | 6.29872 | 21196 ft | 394 kts | 179° |
| 2026-04-23 21:33 | 46.00187 | 6.29713 | 21800 ft | 397 kts | 179° |
| 2026-04-23 21:33 | 45.97444 | 6.29546 | 22372 ft | 401 kts | 179° |
| 2026-04-23 21:33 | 45.94643 | 6.29371 | 22936 ft | 405 kts | 179° |
| 2026-04-23 21:34 | 45.91824 | 6.29531 | 23481 ft | 405 kts | 169° |
| 2026-04-23 21:34 | 45.89072 | 6.30413 | 24009 ft | 406 kts | 159° |
| 2026-04-23 21:34 | 45.86481 | 6.31992 | 24486 ft | 406 kts | 149° |
| 2026-04-23 21:34 | 45.84116 | 6.34206 | 24933 ft | 406 kts | 141° |
| 2026-04-23 21:35 | 45.81852 | 6.36633 | 25391 ft | 408 kts | 141° |
| 2026-04-23 21:35 | 45.79561 | 6.39069 | 25851 ft | 411 kts | 141° |
| 2026-04-23 21:35 | 45.78004 | 6.40718 | 26146 ft | 413 kts | 141° |
| 2026-04-23 21:35 | 45.75713 | 6.43135 | 26599 ft | 415 kts | 142° |
| 2026-04-23 21:36 | 45.71016 | 6.48093 | 27539 ft | 419 kts | 141° |
| 2026-04-23 21:36 | 45.68664 | 6.50581 | 27967 ft | 421 kts | 141° |
| 2026-04-23 21:36 | 45.66329 | 6.53049 | 28408 ft | 423 kts | 141° |
| 2026-04-23 21:37 | 45.63956 | 6.55552 | 28853 ft | 426 kts | 141° |
| 2026-04-23 21:37 | 45.61569 | 6.58066 | 29291 ft | 428 kts | 141° |
| 2026-04-23 21:37 | 45.59162 | 6.60599 | 29702 ft | 430 kts | 141° |
| 2026-04-23 21:37 | 45.56748 | 6.63138 | 30083 ft | 433 kts | 141° |
| 2026-04-23 21:38 | 45.54311 | 6.65702 | 30397 ft | 437 kts | 141° |
| 2026-04-23 21:38 | 45.51854 | 6.68279 | 30756 ft | 438 kts | 141° |
| 2026-04-23 21:38 | 45.49394 | 6.70849 | 31140 ft | 438 kts | 141° |
| 2026-04-23 21:39 | 45.44477 | 6.75977 | 31259 ft | 438 kts | 142° |
| 2026-04-23 21:39 | 45.39515 | 6.80995 | 31261 ft | 438 kts | 143° |
| 2026-04-23 21:40 | 45.34503 | 6.85958 | 31263 ft | 440 kts | 143° |
| 2026-04-23 21:40 | 45.29457 | 6.90913 | 31261 ft | 442 kts | 146° |
| 2026-04-23 21:41 | 45.23747 | 6.94248 | 31274 ft | 449 kts | 165° |
| 2026-04-23 21:41 | 45.17542 | 6.95373 | 31269 ft | 450 kts | 171° |
| 2026-04-23 21:42 | 45.11325 | 6.96355 | 31279 ft | 453 kts | 171° |
| 2026-04-23 21:42 | 45.05053 | 6.97347 | 31269 ft | 454 kts | 171° |
| 2026-04-23 21:43 | 44.98781 | 6.98326 | 31265 ft | 453 kts | 171° |
| 2026-04-23 21:43 | 44.92484 | 6.99301 | 31259 ft | 456 kts | 171° |
| 2026-04-23 21:44 | 44.86167 | 7.00281 | 31257 ft | 456 kts | 171° |
| 2026-04-23 21:44 | 44.79833 | 7.01024 | 31266 ft | 459 kts | 178° |
| 2026-04-23 21:44 | 44.76633 | 7.00620 | 31517 ft | 464 kts | 186° |
| 2026-04-23 21:45 | 44.73430 | 7.00009 | 31867 ft | 465 kts | 186° |
| 2026-04-23 21:45 | 44.70217 | 6.99408 | 32241 ft | 467 kts | 186° |
| 2026-04-23 21:45 | 44.66997 | 6.98809 | 32636 ft | 467 kts | 186° |
| 2026-04-23 21:45 | 44.63770 | 6.98211 | 33012 ft | 468 kts | 186° |
| 2026-04-23 21:46 | 44.60535 | 6.97610 | 33420 ft | 469 kts | 186° |
| 2026-04-23 21:46 | 44.57296 | 6.97004 | 33832 ft | 469 kts | 187° |
| 2026-04-23 21:46 | 44.54060 | 6.96395 | 34252 ft | 469 kts | 187° |
| 2026-04-23 21:46 | 44.50818 | 6.95786 | 34593 ft | 470 kts | 187° |
| 2026-04-23 21:47 | 44.47615 | 6.95186 | 34949 ft | 470 kts | 187° |
| 2026-04-23 21:47 | 44.44375 | 6.94584 | 35190 ft | 471 kts | 187° |
| 2026-04-23 21:47 | 44.41128 | 6.93983 | 35247 ft | 470 kts | 187° |
| 2026-04-23 21:48 | 44.34625 | 6.92787 | 35246 ft | 471 kts | 188° |
| 2026-04-23 21:48 | 44.28120 | 6.91571 | 35246 ft | 472 kts | 188° |
| 2026-04-23 21:49 | 44.21606 | 6.90361 | 35244 ft | 472 kts | 188° |
| 2026-04-23 21:49 | 44.15071 | 6.89284 | 35245 ft | 474 kts | 182° |
| 2026-04-23 21:50 | 44.08498 | 6.89900 | 35240 ft | 475 kts | 174° |
| 2026-04-23 21:50 | 44.01913 | 6.90895 | 35242 ft | 475 kts | 174° |
| 2026-04-23 21:51 | 43.95332 | 6.91891 | 35225 ft | 477 kts | 174° |
| 2026-04-23 21:51 | 43.88718 | 6.92885 | 35233 ft | 478 kts | 174° |
| 2026-04-23 21:52 | 43.82098 | 6.93868 | 35241 ft | 479 kts | 174° |
| 2026-04-23 21:52 | 43.75479 | 6.95109 | 35240 ft | 482 kts | 167° |
| 2026-04-23 21:53 | 43.69281 | 6.98623 | 35249 ft | 483 kts | 148° |
| 2026-04-23 21:53 | 43.63845 | 7.04074 | 35248 ft | 484 kts | 142° |
| 2026-04-23 21:54 | 43.58495 | 7.09643 | 35240 ft | 485 kts | 142° |
| 2026-04-23 21:54 | 43.53078 | 7.15270 | 35240 ft | 489 kts | 142° |
| 2026-04-23 21:55 | 43.47636 | 7.20920 | 35242 ft | 491 kts | 142° |
| 2026-04-23 21:55 | 43.42166 | 7.26577 | 35246 ft | 493 kts | 142° |
| 2026-04-23 21:56 | 43.36672 | 7.32232 | 35240 ft | 494 kts | 142° |
| 2026-04-23 21:56 | 43.31151 | 7.37914 | 35240 ft | 496 kts | 142° |
| 2026-04-23 21:57 | 43.25616 | 7.43617 | 35243 ft | 498 kts | 142° |
| 2026-04-23 21:57 | 43.20072 | 7.49309 | 35247 ft | 499 kts | 143° |
| 2026-04-23 21:58 | 43.14498 | 7.54997 | 35243 ft | 500 kts | 143° |
| 2026-04-23 21:58 | 43.08564 | 7.59981 | 35265 ft | 501 kts | 157° |
| 2026-04-23 21:59 | 43.02039 | 7.63302 | 34977 ft | 500 kts | 161° |
| 2026-04-23 21:59 | 42.98769 | 7.64915 | 34463 ft | 500 kts | 161° |
| 2026-04-23 21:59 | 42.95458 | 7.66551 | 33070 ft | 512 kts | 162° |
| 2026-04-23 22:00 | 42.88670 | 7.69917 | 30530 ft | 527 kts | 161° |
| 2026-04-23 22:00 | 42.85227 | 7.71631 | 29469 ft | 525 kts | 161° |
| 2026-04-23 22:00 | 42.81791 | 7.73339 | 28257 ft | 525 kts | 160° |
| 2026-04-23 22:00 | 42.78377 | 7.75033 | 26998 ft | 517 kts | 160° |
| 2026-04-23 22:01 | 42.75074 | 7.76668 | 25575 ft | 507 kts | 160° |
| 2026-04-23 22:01 | 42.71801 | 7.78279 | 24583 ft | 492 kts | 160° |
| 2026-04-23 22:01 | 42.68641 | 7.79830 | 23737 ft | 474 kts | 160° |
| 2026-04-23 22:01 | 42.65582 | 7.81329 | 22839 ft | 459 kts | 160° |
| 2026-04-23 22:02 | 42.62596 | 7.82795 | 22062 ft | 454 kts | 159° |
| 2026-04-23 22:02 | 42.59641 | 7.84246 | 21320 ft | 450 kts | 159° |
| 2026-04-23 22:02 | 42.56710 | 7.85681 | 20587 ft | 445 kts | 159° |
| 2026-04-23 22:02 | 42.53813 | 7.87097 | 19888 ft | 441 kts | 159° |
| 2026-04-23 22:03 | 42.50940 | 7.88497 | 19214 ft | 436 kts | 159° |
| 2026-04-23 22:03 | 42.48098 | 7.89878 | 18570 ft | 432 kts | 159° |
| 2026-04-23 22:03 | 42.45282 | 7.91248 | 17892 ft | 427 kts | 158° |
| 2026-04-23 22:03 | 42.42505 | 7.92602 | 17300 ft | 421 kts | 158° |
| 2026-04-23 22:04 | 42.39762 | 7.93939 | 16796 ft | 415 kts | 158° |
| 2026-04-23 22:04 | 42.37097 | 7.95235 | 16657 ft | 399 kts | 158° |
| 2026-04-23 22:04 | 42.34539 | 7.96477 | 16529 ft | 383 kts | 158° |
| 2026-04-23 22:04 | 42.32155 | 7.97891 | 16405 ft | 366 kts | 147° |
| 2026-04-23 22:05 | 42.30061 | 7.99703 | 16278 ft | 349 kts | 138° |
| 2026-04-23 22:05 | 42.28265 | 8.01791 | 16150 ft | 335 kts | 133° |
| 2026-04-23 22:05 | 42.26577 | 8.03877 | 16022 ft | 324 kts | 134° |
| 2026-04-23 22:05 | 42.24931 | 8.05895 | 15887 ft | 314 kts | 134° |
| 2026-04-23 22:06 | 42.23334 | 8.07846 | 15756 ft | 304 kts | 133° |
| 2026-04-23 22:06 | 42.21806 | 8.09705 | 15572 ft | 289 kts | 132° |
| 2026-04-23 22:06 | 42.20329 | 8.11504 | 15205 ft | 284 kts | 133° |
| 2026-04-23 22:06 | 42.18875 | 8.13277 | 14789 ft | 280 kts | 132° |
| 2026-04-23 22:07 | 42.17435 | 8.15040 | 14344 ft | 278 kts | 132° |
| 2026-04-23 22:07 | 42.16009 | 8.16787 | 13900 ft | 277 kts | 132° |
| 2026-04-23 22:07 | 42.14586 | 8.18526 | 13413 ft | 275 kts | 131° |
| 2026-04-23 22:07 | 42.13178 | 8.20245 | 12939 ft | 272 kts | 133° |
| 2026-04-23 22:08 | 42.11782 | 8.21949 | 12464 ft | 270 kts | 131° |
| 2026-04-23 22:08 | 42.10399 | 8.23638 | 11984 ft | 268 kts | 133° |
| 2026-04-23 22:08 | 42.09021 | 8.25321 | 11502 ft | 266 kts | 134° |
| 2026-04-23 22:08 | 42.07654 | 8.26986 | 11033 ft | 264 kts | 134° |
| 2026-04-23 22:09 | 42.06291 | 8.28637 | 10571 ft | 262 kts | 134° |
| 2026-04-23 22:09 | 42.04939 | 8.30275 | 10104 ft | 260 kts | 134° |
| 2026-04-23 22:09 | 42.03598 | 8.31900 | 9592 ft | 258 kts | 134° |
| 2026-04-23 22:09 | 42.02274 | 8.33505 | 9100 ft | 255 kts | 134° |
| 2026-04-23 22:10 | 42.00961 | 8.35097 | 8723 ft | 253 kts | 134° |
| 2026-04-23 22:10 | 41.99667 | 8.36668 | 8425 ft | 249 kts | 135° |
| 2026-04-23 22:10 | 41.98406 | 8.38200 | 8213 ft | 246 kts | 135° |
| 2026-04-23 22:10 | 41.97136 | 8.39745 | 8196 ft | 247 kts | 135° |
| 2026-04-23 22:11 | 41.95871 | 8.41307 | 8197 ft | 246 kts | 131° |
| 2026-04-23 22:11 | 41.94835 | 8.43114 | 8198 ft | 243 kts | 117° |
| 2026-04-23 22:11 | 41.94143 | 8.45165 | 8196 ft | 241 kts | 106° |
| 2026-04-23 22:11 | 41.93584 | 8.47294 | 8196 ft | 241 kts | 107° |
| 2026-04-23 22:12 | 41.93022 | 8.49408 | 8192 ft | 241 kts | 107° |
| 2026-04-23 22:12 | 41.92458 | 8.51528 | 8191 ft | 241 kts | 107° |
| 2026-04-23 22:12 | 41.91893 | 8.53643 | 8192 ft | 241 kts | 107° |
| 2026-04-23 22:12 | 41.91328 | 8.55760 | 8192 ft | 241 kts | 107° |
| 2026-04-23 22:13 | 41.90764 | 8.57874 | 8192 ft | 241 kts | 107° |
| 2026-04-23 22:13 | 41.90199 | 8.59991 | 8192 ft | 241 kts | 107° |
| 2026-04-23 22:13 | 41.89563 | 8.62039 | 8183 ft | 243 kts | 121° |
| 2026-04-23 22:13 | 41.88305 | 8.63562 | 8192 ft | 250 kts | 151° |
| 2026-04-23 22:14 | 41.86608 | 8.64073 | 8195 ft | 256 kts | 181° |
| 2026-04-23 22:14 | 41.84907 | 8.63384 | 8193 ft | 260 kts | 212° |
| 2026-04-23 22:14 | 41.83673 | 8.61643 | 8192 ft | 260 kts | 244° |
| 2026-04-23 22:14 | 41.83247 | 8.59323 | 8193 ft | 257 kts | 275° |
| 2026-04-23 22:15 | 41.83716 | 8.57065 | 8192 ft | 251 kts | 304° |
| 2026-04-23 22:15 | 41.84846 | 8.55327 | 8194 ft | 248 kts | 320° |
| 2026-04-23 22:15 | 41.86093 | 8.53729 | 8193 ft | 248 kts | 320° |
| 2026-04-23 22:15 | 41.87350 | 8.52145 | 8194 ft | 248 kts | 320° |
| 2026-04-23 22:16 | 41.88606 | 8.50562 | 8187 ft | 248 kts | 320° |
| 2026-04-23 22:16 | 41.89858 | 8.48979 | 8195 ft | 248 kts | 320° |
| 2026-04-23 22:16 | 41.91250 | 8.47663 | 8192 ft | 243 kts | 342° |
| 2026-04-23 22:16 | 41.92894 | 8.47380 | 8194 ft | 238 kts | 11° |
| 2026-04-23 22:17 | 41.94402 | 8.48182 | 8195 ft | 235 kts | 38° |
| 2026-04-23 22:17 | 41.95437 | 8.49841 | 8191 ft | 234 kts | 65° |
| 2026-04-23 22:17 | 41.95768 | 8.51973 | 8191 ft | 237 kts | 92° |
| 2026-04-23 22:17 | 41.95291 | 8.54094 | 8191 ft | 242 kts | 120° |
| 2026-04-23 22:18 | 41.94158 | 8.55786 | 8194 ft | 246 kts | 134° |
| 2026-04-23 22:18 | 41.92933 | 8.57348 | 8193 ft | 246 kts | 134° |
| 2026-04-23 22:18 | 41.91687 | 8.58924 | 8192 ft | 246 kts | 134° |
| 2026-04-23 22:18 | 41.90438 | 8.60503 | 8194 ft | 246 kts | 134° |
| 2026-04-23 22:19 | 41.89084 | 8.61968 | 8186 ft | 250 kts | 150° |
| 2026-04-23 22:19 | 41.87989 | 8.62449 | 8190 ft | 254 kts | 170° |
| 2026-04-23 22:19 | 41.86234 | 8.62192 | 8192 ft | 259 kts | 201° |
| 2026-04-23 22:19 | 41.84459 | 8.60127 | 8193 ft | 260 kts | 243° |
| 2026-04-23 22:20 | 41.84008 | 8.57816 | 8193 ft | 257 kts | 274° |
| 2026-04-23 22:20 | 41.84457 | 8.55551 | 8193 ft | 251 kts | 304° |
| 2026-04-23 22:20 | 41.85178 | 8.54329 | 8196 ft | 247 kts | 319° |
| 2026-04-23 22:20 | 41.86416 | 8.52720 | 8192 ft | 247 kts | 320° |
| 2026-04-23 22:21 | 41.87668 | 8.51136 | 8193 ft | 248 kts | 320° |
| 2026-04-23 22:21 | 41.88926 | 8.49550 | 8190 ft | 248 kts | 320° |
| 2026-04-23 22:21 | 41.90189 | 8.47972 | 8194 ft | 248 kts | 323° |
| 2026-04-23 22:21 | 41.91691 | 8.46942 | 8192 ft | 242 kts | 351° |
| 2026-04-23 22:22 | 41.93337 | 8.46973 | 8195 ft | 237 kts | 18° |
| 2026-04-23 22:22 | 41.94769 | 8.47998 | 8196 ft | 234 kts | 43° |
| 2026-04-23 22:22 | 41.95695 | 8.49774 | 8191 ft | 234 kts | 69° |
| 2026-04-23 22:22 | 41.95920 | 8.51928 | 8193 ft | 237 kts | 95° |
| 2026-04-23 22:23 | 41.95376 | 8.54029 | 8192 ft | 243 kts | 121° |
| 2026-04-23 22:23 | 41.94237 | 8.55721 | 8194 ft | 246 kts | 133° |
| 2026-04-23 22:23 | 41.93002 | 8.57310 | 8093 ft | 245 kts | 134° |
| 2026-04-23 22:23 | 41.91762 | 8.58869 | 7750 ft | 243 kts | 134° |
| 2026-04-23 22:24 | 41.90528 | 8.60415 | 7406 ft | 241 kts | 134° |
| 2026-04-23 22:24 | 41.89242 | 8.61853 | 7074 ft | 242 kts | 148° |
| 2026-04-23 22:24 | 41.87624 | 8.62440 | 6757 ft | 246 kts | 178° |
| 2026-04-23 22:24 | 41.85971 | 8.61876 | 6405 ft | 250 kts | 208° |
| 2026-04-23 22:25 | 41.84741 | 8.60258 | 6058 ft | 250 kts | 241° |
| 2026-04-23 22:25 | 41.84288 | 8.58044 | 5998 ft | 249 kts | 272° |
| 2026-04-23 22:25 | 41.84701 | 8.55827 | 6007 ft | 246 kts | 303° |
| 2026-04-23 22:25 | 41.85785 | 8.54127 | 6008 ft | 244 kts | 320° |
| 2026-04-23 22:26 | 41.87014 | 8.52555 | 6013 ft | 244 kts | 320° |
| 2026-04-23 22:26 | 41.88251 | 8.50988 | 6005 ft | 244 kts | 320° |
| 2026-04-23 22:26 | 41.89490 | 8.49419 | 6007 ft | 245 kts | 319° |
| 2026-04-23 22:26 | 41.90782 | 8.47948 | 6006 ft | 243 kts | 333° |
| 2026-04-23 22:27 | 41.92367 | 8.47331 | 6014 ft | 236 kts | 2° |
| 2026-04-23 22:27 | 41.93936 | 8.47794 | 6011 ft | 231 kts | 30° |
| 2026-04-23 22:27 | 41.95141 | 8.49168 | 6010 ft | 228 kts | 56° |
| 2026-04-23 22:27 | 41.95733 | 8.51117 | 6008 ft | 227 kts | 82° |
| 2026-04-23 22:28 | 41.95592 | 8.53221 | 6011 ft | 229 kts | 108° |
| 2026-04-23 22:28 | 41.94740 | 8.55028 | 6014 ft | 233 kts | 132° |
| 2026-04-23 22:28 | 41.93584 | 8.56557 | 6011 ft | 234 kts | 134° |
| 2026-04-23 22:28 | 41.92401 | 8.58058 | 6008 ft | 234 kts | 135° |
| 2026-04-23 22:29 | 41.91214 | 8.59551 | 6011 ft | 234 kts | 134° |
| 2026-04-23 22:29 | 41.90024 | 8.61050 | 6008 ft | 234 kts | 135° |
| 2026-04-23 22:29 | 41.88639 | 8.62190 | 6002 ft | 239 kts | 161° |
| 2026-04-23 22:29 | 41.86975 | 8.62253 | 6017 ft | 245 kts | 192° |
| 2026-04-23 22:30 | 41.85494 | 8.61131 | 6013 ft | 250 kts | 226° |
| 2026-04-23 22:30 | 41.84665 | 8.59107 | 6013 ft | 251 kts | 259° |
| 2026-04-23 22:30 | 41.84748 | 8.56813 | 6007 ft | 248 kts | 292° |
| 2026-04-23 22:30 | 41.85685 | 8.54931 | 6013 ft | 243 kts | 319° |
| 2026-04-23 22:31 | 41.86917 | 8.53376 | 6011 ft | 244 kts | 320° |
| 2026-04-23 22:31 | 41.88155 | 8.51815 | 6008 ft | 243 kts | 320° |
| 2026-04-23 22:31 | 41.89374 | 8.50269 | 6003 ft | 238 kts | 319° |
| 2026-04-23 22:31 | 41.90586 | 8.48780 | 6009 ft | 234 kts | 326° |
| 2026-04-23 22:32 | 41.92051 | 8.47967 | 6013 ft | 227 kts | 356° |
| 2026-04-23 22:32 | 41.93579 | 8.48208 | 6013 ft | 221 kts | 25° |
| 2026-04-23 22:32 | 41.94815 | 8.49378 | 6008 ft | 218 kts | 52° |
| 2026-04-23 22:32 | 41.95489 | 8.51140 | 6011 ft | 216 kts | 77° |
| 2026-04-23 22:33 | 41.95483 | 8.53170 | 6011 ft | 218 kts | 104° |
| 2026-04-23 22:33 | 41.94782 | 8.54941 | 6010 ft | 221 kts | 130° |
| 2026-04-23 22:33 | 41.93692 | 8.56413 | 6008 ft | 223 kts | 134° |
| 2026-04-23 22:33 | 41.92562 | 8.57847 | 6013 ft | 223 kts | 135° |
| 2026-04-23 22:34 | 41.91430 | 8.59269 | 6004 ft | 223 kts | 134° |
| 2026-04-23 22:34 | 41.90298 | 8.60696 | 6013 ft | 223 kts | 134° |
| 2026-04-23 22:34 | 41.89052 | 8.61939 | 6005 ft | 227 kts | 155° |
| 2026-04-23 22:34 | 41.87489 | 8.62211 | 6007 ft | 233 kts | 187° |
| 2026-04-23 22:35 | 41.86022 | 8.61289 | 6013 ft | 239 kts | 222° |
| 2026-04-23 22:35 | 41.85169 | 8.59404 | 6013 ft | 240 kts | 258° |
| 2026-04-23 22:35 | 41.85230 | 8.57210 | 6010 ft | 237 kts | 292° |
| 2026-04-23 22:35 | 41.86138 | 8.55430 | 6012 ft | 232 kts | 320° |
| 2026-04-23 22:36 | 41.87318 | 8.53944 | 6014 ft | 233 kts | 320° |
| 2026-04-23 22:36 | 41.88493 | 8.52459 | 5778 ft | 231 kts | 319° |
| 2026-04-23 22:36 | 41.89661 | 8.50975 | 5442 ft | 231 kts | 319° |
| 2026-04-23 22:36 | 41.90856 | 8.49542 | 5116 ft | 229 kts | 328° |
| 2026-04-23 22:37 | 41.92325 | 8.48887 | 4789 ft | 222 kts | 0° |
| 2026-04-23 22:37 | 41.93796 | 8.49348 | 4439 ft | 217 kts | 31° |
| 2026-04-23 22:37 | 41.94867 | 8.50736 | 4096 ft | 216 kts | 61° |
| 2026-04-23 22:37 | 41.95253 | 8.52659 | 4015 ft | 217 kts | 91° |
| 2026-04-23 22:38 | 41.94871 | 8.54617 | 4012 ft | 221 kts | 121° |
| 2026-04-23 22:38 | 41.93856 | 8.56160 | 4008 ft | 222 kts | 136° |
| 2026-04-23 22:38 | 41.92736 | 8.57588 | 4008 ft | 222 kts | 137° |
| 2026-04-23 22:38 | 41.91626 | 8.58989 | 4010 ft | 223 kts | 137° |
| 2026-04-23 22:39 | 41.90497 | 8.60417 | 4012 ft | 223 kts | 136° |
| 2026-04-23 22:39 | 41.89313 | 8.61751 | 4001 ft | 223 kts | 151° |
| 2026-04-23 22:39 | 41.87825 | 8.62245 | 4010 ft | 223 kts | 183° |
| 2026-04-23 22:39 | 41.86362 | 8.61616 | 4005 ft | 224 kts | 214° |
| 2026-04-23 22:40 | 41.85357 | 8.60040 | 4007 ft | 225 kts | 247° |
| 2026-04-23 22:40 | 41.85117 | 8.58000 | 4011 ft | 224 kts | 279° |
| 2026-04-23 22:40 | 41.86725 | 8.54723 | 4006 ft | 200 kts | 318° |
| 2026-04-23 22:41 | 41.87710 | 8.53469 | 4047 ft | 193 kts | 318° |
| 2026-04-23 22:41 | 41.88684 | 8.52236 | 4010 ft | 191 kts | 317° |
| 2026-04-23 22:41 | 41.89649 | 8.51014 | 4009 ft | 191 kts | 317° |
| 2026-04-23 22:41 | 41.90631 | 8.49814 | 4010 ft | 191 kts | 323° |
| 2026-04-23 22:42 | 41.91812 | 8.49047 | 4011 ft | 190 kts | 347° |
| 2026-04-23 22:42 | 41.93116 | 8.49048 | 4007 ft | 189 kts | 14° |
| 2026-04-23 22:42 | 41.94277 | 8.49848 | 4008 ft | 189 kts | 41° |
| 2026-04-23 22:42 | 41.95041 | 8.51268 | 4005 ft | 189 kts | 68° |
| 2026-04-23 22:43 | 41.95246 | 8.53001 | 4010 ft | 190 kts | 94° |
| 2026-04-23 22:43 | 41.94850 | 8.54675 | 4007 ft | 190 kts | 121° |
| 2026-04-23 22:43 | 41.93991 | 8.56023 | 4015 ft | 191 kts | 135° |
| 2026-04-23 22:43 | 41.93038 | 8.57257 | 4009 ft | 190 kts | 137° |
| 2026-04-23 22:44 | 41.92070 | 8.58473 | 4012 ft | 190 kts | 137° |
| 2026-04-23 22:44 | 41.91103 | 8.59686 | 4011 ft | 190 kts | 137° |
| 2026-04-23 22:44 | 41.90136 | 8.60906 | 4010 ft | 190 kts | 137° |
| 2026-04-23 22:44 | 41.89402 | 8.62314 | 4002 ft | 179 kts | 108° |
| 2026-04-23 22:45 | 41.89227 | 8.63916 | 4008 ft | 171 kts | 97° |
| 2026-04-23 22:45 | 41.89101 | 8.65494 | 3941 ft | 170 kts | 96° |
| 2026-04-23 22:45 | 41.88994 | 8.67074 | 3845 ft | 170 kts | 96° |
| 2026-04-23 22:45 | 41.88910 | 8.68659 | 3747 ft | 170 kts | 95° |
| 2026-04-23 22:46 | 41.88878 | 8.70250 | 3648 ft | 171 kts | 89° |
| 2026-04-23 22:46 | 41.89096 | 8.71816 | 3545 ft | 172 kts | 71° |
| 2026-04-23 22:46 | 41.89647 | 8.73203 | 3310 ft | 170 kts | 52° |
| 2026-04-23 22:46 | 41.90507 | 8.74292 | 2994 ft | 171 kts | 40° |
| 2026-04-23 22:47 | 41.91438 | 8.75321 | 2582 ft | 175 kts | 39° |
| 2026-04-23 22:47 | 41.92482 | 8.76129 | 2208 ft | 173 kts | 24° |
| 2026-04-23 22:47 | 41.93577 | 8.76804 | 1937 ft | 174 kts | 24° |
| 2026-04-23 22:47 | 41.94691 | 8.77462 | 1643 ft | 175 kts | 23° |
| 2026-04-23 22:48 | 41.95813 | 8.78098 | 1410 ft | 174 kts | 26° |
| 2026-04-23 22:48 | 41.96910 | 8.78745 | 1164 ft | 168 kts | 28° |
| 2026-04-23 22:48 | 41.97914 | 8.79338 | 1093 ft | 144 kts | 25° |
| 2026-04-23 22:48 | 41.98688 | 8.80126 | 1105 ft | 138 kts | 58° |
| 2026-04-23 22:49 | 41.98889 | 8.81321 | 1044 ft | 131 kts | 107° |
| 2026-04-23 22:49 | 41.98399 | 8.82259 | 888 ft | 125 kts | 150° |
| 2026-04-23 22:49 | 41.97560 | 8.82575 | 613 ft | 124 kts | 179° |
| 2026-04-23 22:49 | 41.96724 | 8.82494 | 580 ft | 119 kts | 193° |
| 2026-04-23 22:50 | 41.95903 | 8.82327 | 494 ft | 118 kts | 193° |
| 2026-04-23 22:50 | 41.95133 | 8.81996 | 419 ft | 116 kts | 208° |
| 2026-04-23 22:50 | 41.94393 | 8.81559 | 292 ft | 116 kts | 216° |
| 2026-04-23 22:50 | 41.93666 | 8.81082 | 164 ft | 117 kts | 219° |
| 2026-04-23 22:51 | 41.92935 | 8.80602 | 50 ft | 116 kts | 221° |
| 2026-04-23 22:51 | 41.92342 | 8.80219 | 26 ft | 62 kts | 204° |
| 2026-04-23 22:51 | 41.92111 | 8.80076 | 27 ft | 29 kts | 205° |
| 2026-04-23 22:51 | 41.91925 | 8.79957 | 27 ft | 30 kts | 205° |
| 2026-04-23 22:52 | 41.91735 | 8.79839 | 23 ft | 31 kts | 205° |
| 2026-04-23 22:52 | 41.91539 | 8.79716 | 22 ft | 31 kts | 205° |
| 2026-04-23 22:52 | 41.91353 | 8.79601 | 22 ft | 23 kts | 205° |
| 2026-04-23 22:52 | 41.91246 | 8.79511 | 23 ft | 14 kts | 241° |
| 2026-04-23 22:53 | 41.91281 | 8.79405 | 23 ft | 11 kts | 330° |
| 2026-04-23 22:53 | 41.91356 | 8.79356 | 23 ft | 13 kts | 334° |
| 2026-04-23 22:53 | 41.91445 | 8.79334 | 23 ft | 14 kts | 6° |
| 2026-04-23 22:53 | 41.91538 | 8.79377 | 24 ft | 15 kts | 25° |
| 2026-04-23 22:54 | 41.91638 | 8.79444 | 21 ft | 17 kts | 25° |
| 2026-04-23 22:54 | 41.91735 | 8.79505 | 22 ft | 14 kts | 25° |
| 2026-04-23 22:54 | 41.91823 | 8.79561 | 24 ft | 14 kts | 25° |
| 2026-04-23 22:54 | 41.91915 | 8.79618 | 26 ft | 15 kts | 25° |
| 2026-04-23 22:55 | 41.92007 | 8.79675 | 30 ft | 15 kts | 24° |
| 2026-04-23 22:55 | 41.92084 | 8.79713 | 26 ft | 8 kts | 348° |
| 2026-04-23 22:55 | 41.92122 | 8.79689 | 26 ft | 6 kts | 339° |
| 2026-04-23 22:55 | 41.92147 | 8.79678 | 28 ft | 0 kts | 344° |